sensor_id;sensor_type;location;lat;lon;timestamp;pressure;altitude;pressure_sealevel;temperature;humidity
59608;BME280;45426;44.726;10.390;2023-03-21T00:00:46;100925.72;;;8.45;100.00
59608;BME280;45426;44.726;10.390;2023-03-21T00:03:13;100920.34;;;8.18;100.00
59608;BME280;45426;44.726;10.390;2023-03-21T00:05:40;100921.97;;;8.05;100.00
59608;BME280;45426;44.726;10.390;2023-03-21T00:08:07;100927.41;;;7.77;100.00
59608;BME280;45426;44.726;10.390;2023-03-21T00:10:32;100928.59;;;7.85;100.00
59608;BME280;45426;44.726;10.390;2023-03-21T00:12:58;100926.38;;;7.59;100.00
59608;BME280;45426;44.726;10.390;2023-03-21T00:15:24;100929.69;;;7.56;100.00
59608;BME280;45426;44.726;10.390;2023-03-21T00:17:54;100928.09;;;7.69;100.00
59608;BME280;45426;44.726;10.390;2023-03-21T00:20:28;100925.59;;;7.45;100.00
59608;BME280;45426;44.726;10.390;2023-03-21T00:22:53;100922.25;;;7.34;100.00
59608;BME280;45426;44.726;10.390;2023-03-21T00:25:19;100918.97;;;7.37;100.00
59608;BME280;45426;44.726;10.390;2023-03-21T00:27:44;100915.66;;;7.40;100.00
59608;BME280;45426;44.726;10.390;2023-03-21T00:30:11;100914.38;;;7.65;100.00
59608;BME280;45426;44.726;10.390;2023-03-21T00:32:36;100918.88;;;7.70;100.00
59608;BME280;45426;44.726;10.390;2023-03-21T00:35:02;100907.56;;;7.95;100.00
59608;BME280;45426;44.726;10.390;2023-03-21T00:37:27;100903.97;;;8.23;100.00
59608;BME280;45426;44.726;10.390;2023-03-21T00:39:53;100903.13;;;8.00;100.00
59608;BME280;45426;44.726;10.390;2023-03-21T00:42:18;100898.94;;;7.93;100.00
59608;BME280;45426;44.726;10.390;2023-03-21T00:44:44;100904.03;;;7.81;100.00
59608;BME280;45426;44.726;10.390;2023-03-21T00:47:11;100898.84;;;7.85;100.00
59608;BME280;45426;44.726;10.390;2023-03-21T00:49:37;100892.22;;;7.77;100.00
59608;BME280;45426;44.726;10.390;2023-03-21T00:52:07;100886.88;;;8.13;100.00
59608;BME280;45426;44.726;10.390;2023-03-21T00:54:34;100882.00;;;7.74;100.00
59608;BME280;45426;44.726;10.390;2023-03-21T00:56:59;100877.50;;;7.55;100.00
59608;BME280;45426;44.726;10.390;2023-03-21T00:59:25;100880.31;;;7.50;100.00
59608;BME280;45426;44.726;10.390;2023-03-21T01:01:51;100872.91;;;7.56;100.00
59608;BME280;45426;44.726;10.390;2023-03-21T01:04:18;100870.91;;;7.62;100.00
59608;BME280;45426;44.726;10.390;2023-03-21T01:06:46;100860.09;;;7.62;100.00
59608;BME280;45426;44.726;10.390;2023-03-21T01:09:15;100854.97;;;7.74;100.00
59608;BME280;45426;44.726;10.390;2023-03-21T01:11:41;100854.56;;;7.81;100.00
59608;BME280;45426;44.726;10.390;2023-03-21T01:14:07;100852.75;;;8.26;100.00
59608;BME280;45426;44.726;10.390;2023-03-21T01:16:32;100845.56;;;8.22;100.00
59608;BME280;45426;44.726;10.390;2023-03-21T01:18:58;100849.78;;;8.14;100.00
59608;BME280;45426;44.726;10.390;2023-03-21T01:21:24;100844.31;;;8.28;100.00
59608;BME280;45426;44.726;10.390;2023-03-21T01:23:50;100835.00;;;7.97;100.00
59608;BME280;45426;44.726;10.390;2023-03-21T01:26:15;100840.16;;;8.08;100.00
59608;BME280;45426;44.726;10.390;2023-03-21T01:28:42;100840.44;;;8.20;100.00
59608;BME280;45426;44.726;10.390;2023-03-21T01:31:10;100831.91;;;8.27;100.00
59608;BME280;45426;44.726;10.390;2023-03-21T01:33:36;100836.78;;;8.02;100.00
59608;BME280;45426;44.726;10.390;2023-03-21T01:36:02;100831.59;;;8.28;100.00
59608;BME280;45426;44.726;10.390;2023-03-21T01:38:28;100834.41;;;8.01;100.00
59608;BME280;45426;44.726;10.390;2023-03-21T01:40:54;100832.44;;;7.78;100.00
59608;BME280;45426;44.726;10.390;2023-03-21T01:43:33;100826.84;;;7.47;100.00
59608;BME280;45426;44.726;10.390;2023-03-21T01:48:36;100829.84;;;7.04;100.00
59608;BME280;45426;44.726;10.390;2023-03-21T01:51:03;100826.00;;;6.91;100.00
59608;BME280;45426;44.726;10.390;2023-03-21T01:53:31;100829.41;;;6.97;100.00
59608;BME280;45426;44.726;10.390;2023-03-21T01:56:21;100822.63;;;7.55;100.00
59608;BME280;45426;44.726;10.390;2023-03-21T01:58:50;100818.91;;;8.15;100.00
59608;BME280;45426;44.726;10.390;2023-03-21T02:01:17;100811.25;;;8.31;100.00
59608;BME280;45426;44.726;10.390;2023-03-21T02:03:45;100812.03;;;8.31;100.00
59608;BME280;45426;44.726;10.390;2023-03-21T02:06:31;100812.66;;;8.51;100.00
59608;BME280;45426;44.726;10.390;2023-03-21T02:09:03;100812.81;;;8.09;100.00
59608;BME280;45426;44.726;10.390;2023-03-21T02:11:29;100814.88;;;7.76;100.00
59608;BME280;45426;44.726;10.390;2023-03-21T02:13:56;100811.63;;;7.65;100.00
59608;BME280;45426;44.726;10.390;2023-03-21T02:17:07;100816.84;;;7.34;100.00
59608;BME280;45426;44.726;10.390;2023-03-21T02:27:48;100808.59;;;7.67;100.00
59608;BME280;45426;44.726;10.390;2023-03-21T02:30:33;100805.59;;;7.41;100.00
59608;BME280;45426;44.726;10.390;2023-03-21T02:44:45;100800.03;;;7.37;100.00
59608;BME280;45426;44.726;10.390;2023-03-21T02:47:38;100796.31;;;7.33;100.00
59608;BME280;45426;44.726;10.390;2023-03-21T02:52:38;100785.56;;;7.55;100.00
59608;BME280;45426;44.726;10.390;2023-03-21T02:55:06;100779.47;;;7.50;100.00
59608;BME280;45426;44.726;10.390;2023-03-21T02:57:39;100787.00;;;7.53;100.00
59608;BME280;45426;44.726;10.390;2023-03-21T03:00:07;100779.28;;;7.46;100.00
59608;BME280;45426;44.726;10.390;2023-03-21T03:02:37;100780.00;;;7.38;100.00
59608;BME280;45426;44.726;10.390;2023-03-21T03:05:30;100777.00;;;7.26;100.00
59608;BME280;45426;44.726;10.390;2023-03-21T03:10:55;100782.19;;;6.94;100.00
59608;BME280;45426;44.726;10.390;2023-03-21T03:19:29;100783.38;;;6.88;100.00
59608;BME280;45426;44.726;10.390;2023-03-21T03:22:05;100787.22;;;7.29;100.00
59608;BME280;45426;44.726;10.390;2023-03-21T03:24:41;100792.59;;;7.56;100.00
59608;BME280;45426;44.726;10.390;2023-03-21T03:27:17;100786.75;;;6.66;100.00
59608;BME280;45426;44.726;10.390;2023-03-21T03:29:45;100784.22;;;6.56;100.00
59608;BME280;45426;44.726;10.390;2023-03-21T03:32:14;100783.28;;;6.47;100.00
59608;BME280;45426;44.726;10.390;2023-03-21T03:34:50;100792.56;;;6.73;100.00
59608;BME280;45426;44.726;10.390;2023-03-21T03:37:19;100789.09;;;7.00;100.00
59608;BME280;45426;44.726;10.390;2023-03-21T03:42:45;100782.28;;;6.43;100.00
59608;BME280;45426;44.726;10.390;2023-03-21T03:45:09;100783.81;;;5.97;100.00
59608;BME280;45426;44.726;10.390;2023-03-21T03:47:41;100793.25;;;5.94;100.00
59608;BME280;45426;44.726;10.390;2023-03-21T03:52:58;100786.41;;;7.00;100.00
59608;BME280;45426;44.726;10.390;2023-03-21T03:55:26;100781.69;;;6.92;100.00
59608;BME280;45426;44.726;10.390;2023-03-21T03:57:59;100783.13;;;7.31;100.00
59608;BME280;45426;44.726;10.390;2023-03-21T04:00:25;100780.09;;;6.91;100.00
59608;BME280;45426;44.726;10.390;2023-03-21T04:02:51;100781.81;;;6.21;100.00
59608;BME280;45426;44.726;10.390;2023-03-21T04:05:17;100780.66;;;6.09;100.00
59608;BME280;45426;44.726;10.390;2023-03-21T04:07:48;100776.56;;;5.92;100.00
59608;BME280;45426;44.726;10.390;2023-03-21T04:10:15;100777.09;;;5.51;100.00
59608;BME280;45426;44.726;10.390;2023-03-21T04:12:41;100781.34;;;6.00;100.00
59608;BME280;45426;44.726;10.390;2023-03-21T04:15:07;100774.38;;;6.32;100.00
59608;BME280;45426;44.726;10.390;2023-03-21T04:17:33;100777.00;;;6.18;100.00
59608;BME280;45426;44.726;10.390;2023-03-21T04:19:58;100775.44;;;6.31;100.00
59608;BME280;45426;44.726;10.390;2023-03-21T04:22:24;100778.66;;;6.66;100.00
59608;BME280;45426;44.726;10.390;2023-03-21T04:24:50;100775.97;;;6.66;100.00
59608;BME280;45426;44.726;10.390;2023-03-21T04:27:15;100773.75;;;6.35;100.00
59608;BME280;45426;44.726;10.390;2023-03-21T04:29:41;100778.28;;;6.40;100.00
59608;BME280;45426;44.726;10.390;2023-03-21T04:32:07;100776.38;;;6.40;100.00
59608;BME280;45426;44.726;10.390;2023-03-21T04:34:42;100782.88;;;6.39;100.00
59608;BME280;45426;44.726;10.390;2023-03-21T04:37:09;100782.53;;;6.60;100.00
59608;BME280;45426;44.726;10.390;2023-03-21T04:39:37;100780.09;;;7.19;100.00
59608;BME280;45426;44.726;10.390;2023-03-21T04:42:03;100786.19;;;6.97;100.00
59608;BME280;45426;44.726;10.390;2023-03-21T04:44:29;100788.06;;;6.83;100.00
59608;BME280;45426;44.726;10.390;2023-03-21T04:46:54;100782.28;;;7.03;100.00
59608;BME280;45426;44.726;10.390;2023-03-21T04:49:20;100790.53;;;6.65;100.00
59608;BME280;45426;44.726;10.390;2023-03-21T04:51:46;100777.50;;;7.00;100.00
59608;BME280;45426;44.726;10.390;2023-03-21T04:54:11;100779.59;;;7.03;100.00
59608;BME280;45426;44.726;10.390;2023-03-21T04:56:38;100785.00;;;7.03;100.00
59608;BME280;45426;44.726;10.390;2023-03-21T04:59:09;100792.78;;;6.91;100.00
59608;BME280;45426;44.726;10.390;2023-03-21T05:01:35;100789.03;;;7.33;100.00
59608;BME280;45426;44.726;10.390;2023-03-21T05:04:02;100785.31;;;7.43;100.00
59608;BME280;45426;44.726;10.390;2023-03-21T05:06:29;100792.47;;;6.78;100.00
59608;BME280;45426;44.726;10.390;2023-03-21T05:08:56;100794.44;;;6.73;100.00
59608;BME280;45426;44.726;10.390;2023-03-21T05:11:27;100790.97;;;6.39;100.00
59608;BME280;45426;44.726;10.390;2023-03-21T05:13:54;100789.63;;;6.56;100.00
59608;BME280;45426;44.726;10.390;2023-03-21T05:16:20;100792.75;;;6.63;100.00
59608;BME280;45426;44.726;10.390;2023-03-21T05:18:49;100796.59;;;6.90;100.00
59608;BME280;45426;44.726;10.390;2023-03-21T05:21:15;100794.41;;;7.06;100.00
59608;BME280;45426;44.726;10.390;2023-03-21T05:23:42;100791.78;;;7.42;100.00
59608;BME280;45426;44.726;10.390;2023-03-21T05:26:08;100790.63;;;7.48;100.00
59608;BME280;45426;44.726;10.390;2023-03-21T05:28:34;100784.50;;;7.43;100.00
59608;BME280;45426;44.726;10.390;2023-03-21T05:31:05;100800.59;;;6.92;100.00
59608;BME280;45426;44.726;10.390;2023-03-21T05:33:31;100795.09;;;6.97;100.00
59608;BME280;45426;44.726;10.390;2023-03-21T05:35:57;100798.41;;;7.36;100.00
59608;BME280;45426;44.726;10.390;2023-03-21T05:38:23;100788.56;;;7.68;100.00
59608;BME280;45426;44.726;10.390;2023-03-21T05:40:49;100798.28;;;7.69;100.00
59608;BME280;45426;44.726;10.390;2023-03-21T05:43:15;100809.75;;;7.88;100.00
59608;BME280;45426;44.726;10.390;2023-03-21T05:45:41;100814.78;;;7.95;100.00
59608;BME280;45426;44.726;10.390;2023-03-21T05:48:07;100805.69;;;7.77;100.00
59608;BME280;45426;44.726;10.390;2023-03-21T05:50:33;100816.91;;;7.01;100.00
59608;BME280;45426;44.726;10.390;2023-03-21T05:52:59;100811.63;;;7.10;100.00
59608;BME280;45426;44.726;10.390;2023-03-21T05:55:24;100821.44;;;7.19;100.00
59608;BME280;45426;44.726;10.390;2023-03-21T05:57:49;100822.78;;;7.86;100.00
59608;BME280;45426;44.726;10.390;2023-03-21T06:00:16;100821.03;;;7.12;100.00
59608;BME280;45426;44.726;10.390;2023-03-21T06:02:42;100824.22;;;7.00;100.00
59608;BME280;45426;44.726;10.390;2023-03-21T06:05:08;100828.63;;;6.96;100.00
59608;BME280;45426;44.726;10.390;2023-03-21T06:07:34;100822.16;;;6.78;100.00
59608;BME280;45426;44.726;10.390;2023-03-21T06:10:01;100816.69;;;6.51;100.00
59608;BME280;45426;44.726;10.390;2023-03-21T06:12:27;100818.75;;;6.73;100.00
59608;BME280;45426;44.726;10.390;2023-03-21T06:14:52;100811.22;;;7.44;100.00
59608;BME280;45426;44.726;10.390;2023-03-21T06:17:17;100815.75;;;7.99;100.00
59608;BME280;45426;44.726;10.390;2023-03-21T06:19:43;100809.47;;;8.49;100.00
59608;BME280;45426;44.726;10.390;2023-03-21T06:22:08;100805.91;;;8.93;100.00
59608;BME280;45426;44.726;10.390;2023-03-21T06:24:34;100796.06;;;11.24;100.00
59608;BME280;45426;44.726;10.390;2023-03-21T06:26:59;100789.56;;;13.34;100.00
59608;BME280;45426;44.726;10.390;2023-03-21T06:29:24;100795.69;;;13.56;100.00
59608;BME280;45426;44.726;10.390;2023-03-21T06:31:50;100793.97;;;13.27;100.00
59608;BME280;45426;44.726;10.390;2023-03-21T06:34:15;100794.66;;;13.73;100.00
59608;BME280;45426;44.726;10.390;2023-03-21T06:36:41;100789.41;;;13.55;100.00
59608;BME280;45426;44.726;10.390;2023-03-21T06:39:09;100781.69;;;14.10;100.00
59608;BME280;45426;44.726;10.390;2023-03-21T06:41:35;100779.09;;;14.30;100.00
59608;BME280;45426;44.726;10.390;2023-03-21T06:44:01;100791.56;;;15.19;100.00
59608;BME280;45426;44.726;10.390;2023-03-21T06:46:26;100784.97;;;16.10;100.00
59608;BME280;45426;44.726;10.390;2023-03-21T06:48:52;100784.06;;;15.67;100.00
59608;BME280;45426;44.726;10.390;2023-03-21T06:51:17;100786.97;;;17.22;100.00
59608;BME280;45426;44.726;10.390;2023-03-21T06:53:43;100777.66;;;19.44;100.00
59608;BME280;45426;44.726;10.390;2023-03-21T06:56:10;100782.78;;;20.30;100.00
59608;BME280;45426;44.726;10.390;2023-03-21T06:58:35;100778.84;;;20.24;100.00
59608;BME280;45426;44.726;10.390;2023-03-21T07:01:02;100775.16;;;24.29;100.00
59608;BME280;45426;44.726;10.390;2023-03-21T07:03:28;100782.09;;;20.94;100.00
59608;BME280;45426;44.726;10.390;2023-03-21T07:05:53;100795.44;;;18.98;100.00
59608;BME280;45426;44.726;10.390;2023-03-21T07:08:20;100787.88;;;18.51;100.00
59608;BME280;45426;44.726;10.390;2023-03-21T07:10:45;100794.00;;;19.15;100.00
59608;BME280;45426;44.726;10.390;2023-03-21T07:13:12;100789.41;;;19.41;100.00
59608;BME280;45426;44.726;10.390;2023-03-21T07:15:37;100790.06;;;19.20;100.00
59608;BME280;45426;44.726;10.390;2023-03-21T07:18:04;100793.44;;;19.54;100.00
59608;BME280;45426;44.726;10.390;2023-03-21T07:20:30;100792.38;;;19.11;100.00
59608;BME280;45426;44.726;10.390;2023-03-21T07:22:56;100786.03;;;21.40;100.00
59608;BME280;45426;44.726;10.390;2023-03-21T07:25:22;100772.63;;;25.80;100.00
59608;BME280;45426;44.726;10.390;2023-03-21T07:27:47;100773.44;;;27.19;100.00
59608;BME280;45426;44.726;10.390;2023-03-21T07:30:13;100783.72;;;23.76;100.00
59608;BME280;45426;44.726;10.390;2023-03-21T07:32:39;100787.56;;;23.90;100.00
59608;BME280;45426;44.726;10.390;2023-03-21T07:35:06;100777.41;;;28.05;100.00
59608;BME280;45426;44.726;10.390;2023-03-21T07:37:31;100773.19;;;28.01;100.00
59608;BME280;45426;44.726;10.390;2023-03-21T07:39:57;100790.19;;;24.62;100.00
59608;BME280;45426;44.726;10.390;2023-03-21T07:42:22;100786.03;;;25.85;100.00
59608;BME280;45426;44.726;10.390;2023-03-21T07:44:48;100777.78;;;28.33;100.00
59608;BME280;45426;44.726;10.390;2023-03-21T07:47:13;100779.25;;;28.25;100.00
59608;BME280;45426;44.726;10.390;2023-03-21T07:49:38;100794.16;;;26.52;100.00
59608;BME280;45426;44.726;10.390;2023-03-21T07:52:04;100787.47;;;25.06;100.00
59608;BME280;45426;44.726;10.390;2023-03-21T07:54:32;100794.19;;;27.18;100.00
59608;BME280;45426;44.726;10.390;2023-03-21T07:56:57;100797.94;;;26.62;100.00
59608;BME280;45426;44.726;10.390;2023-03-21T07:59:22;100799.56;;;24.95;100.00
59608;BME280;45426;44.726;10.390;2023-03-21T08:01:48;100806.13;;;24.82;100.00
59608;BME280;45426;44.726;10.390;2023-03-21T08:04:13;100800.13;;;26.34;100.00
59608;BME280;45426;44.726;10.390;2023-03-21T08:06:39;100810.16;;;25.91;100.00
59608;BME280;45426;44.726;10.390;2023-03-21T08:09:05;100814.88;;;25.74;100.00
59608;BME280;45426;44.726;10.390;2023-03-21T08:11:31;100812.09;;;24.80;100.00
59608;BME280;45426;44.726;10.390;2023-03-21T08:13:57;100805.72;;;26.14;100.00
59608;BME280;45426;44.726;10.390;2023-03-21T08:16:23;100811.53;;;26.03;100.00
59608;BME280;45426;44.726;10.390;2023-03-21T08:18:49;100808.03;;;24.61;100.00
59608;BME280;45426;44.726;10.390;2023-03-21T08:21:14;100817.91;;;21.91;100.00
59608;BME280;45426;44.726;10.390;2023-03-21T08:23:40;100818.00;;;20.72;100.00
59608;BME280;45426;44.726;10.390;2023-03-21T08:26:05;100819.84;;;19.59;100.00
59608;BME280;45426;44.726;10.390;2023-03-21T08:28:31;100811.38;;;19.27;100.00
59608;BME280;45426;44.726;10.390;2023-03-21T08:30:57;100811.50;;;19.48;100.00
59608;BME280;45426;44.726;10.390;2023-03-21T08:33:22;100818.94;;;20.03;100.00
59608;BME280;45426;44.726;10.390;2023-03-21T08:35:48;100815.84;;;19.46;100.00
59608;BME280;45426;44.726;10.390;2023-03-21T08:38:13;100812.50;;;20.98;100.00
59608;BME280;45426;44.726;10.390;2023-03-21T08:40:38;100808.13;;;20.64;100.00
59608;BME280;45426;44.726;10.390;2023-03-21T08:43:04;100805.25;;;20.28;100.00
59608;BME280;45426;44.726;10.390;2023-03-21T08:45:30;100806.16;;;20.75;100.00
59608;BME280;45426;44.726;10.390;2023-03-21T08:47:55;100801.91;;;19.83;100.00
59608;BME280;45426;44.726;10.390;2023-03-21T08:50:24;100799.38;;;19.01;100.00
59608;BME280;45426;44.726;10.390;2023-03-21T08:52:50;100805.66;;;20.34;100.00
59608;BME280;45426;44.726;10.390;2023-03-21T08:55:16;100802.41;;;20.03;100.00
59608;BME280;45426;44.726;10.390;2023-03-21T08:57:42;100801.72;;;20.39;100.00
59608;BME280;45426;44.726;10.390;2023-03-21T09:00:11;100799.38;;;20.48;100.00
59608;BME280;45426;44.726;10.390;2023-03-21T09:02:39;100787.72;;;24.10;100.00
59608;BME280;45426;44.726;10.390;2023-03-21T09:05:05;100782.13;;;27.21;100.00
59608;BME280;45426;44.726;10.390;2023-03-21T09:07:33;100788.25;;;23.25;100.00
59608;BME280;45426;44.726;10.390;2023-03-21T09:10:03;100781.03;;;26.69;100.00
59608;BME280;45426;44.726;10.390;2023-03-21T09:12:29;100783.59;;;23.53;100.00
59608;BME280;45426;44.726;10.390;2023-03-21T09:14:54;100788.63;;;24.85;100.00
59608;BME280;45426;44.726;10.390;2023-03-21T09:17:20;100787.34;;;26.73;100.00
59608;BME280;45426;44.726;10.390;2023-03-21T09:19:45;100788.88;;;24.94;100.00
59608;BME280;45426;44.726;10.390;2023-03-21T09:22:12;100798.66;;;25.49;100.00
59608;BME280;45426;44.726;10.390;2023-03-21T09:24:44;100790.34;;;23.10;100.00
59608;BME280;45426;44.726;10.390;2023-03-21T09:27:12;100795.09;;;21.55;100.00
59608;BME280;45426;44.726;10.390;2023-03-21T09:29:38;100794.69;;;21.52;100.00
59608;BME280;45426;44.726;10.390;2023-03-21T09:32:08;100791.53;;;21.50;100.00
59608;BME280;45426;44.726;10.390;2023-03-21T09:34:33;100798.41;;;22.31;100.00
59608;BME280;45426;44.726;10.390;2023-03-21T09:37:01;100801.69;;;21.97;100.00
59608;BME280;45426;44.726;10.390;2023-03-21T09:39:27;100795.13;;;20.93;100.00
59608;BME280;45426;44.726;10.390;2023-03-21T09:44:50;100788.41;;;20.66;100.00
59608;BME280;45426;44.726;10.390;2023-03-21T09:47:28;100786.03;;;21.36;100.00
59608;BME280;45426;44.726;10.390;2023-03-21T09:50:04;100786.00;;;21.65;100.00
59608;BME280;45426;44.726;10.390;2023-03-21T09:55:35;100801.31;;;19.52;100.00
59608;BME280;45426;44.726;10.390;2023-03-21T10:00:39;100795.94;;;21.12;100.00
59608;BME280;45426;44.726;10.390;2023-03-21T10:03:20;100792.72;;;21.39;100.00
59608;BME280;45426;44.726;10.390;2023-03-21T10:05:54;100790.00;;;20.81;100.00
59608;BME280;45426;44.726;10.390;2023-03-21T10:08:31;100775.00;;;21.32;100.00
59608;BME280;45426;44.726;10.390;2023-03-21T10:11:24;100772.56;;;21.67;100.00
59608;BME280;45426;44.726;10.390;2023-03-21T10:13:55;100774.97;;;21.47;100.00
59608;BME280;45426;44.726;10.390;2023-03-21T10:16:30;100775.03;;;20.93;100.00
59608;BME280;45426;44.726;10.390;2023-03-21T10:18:56;100764.75;;;21.01;100.00
59608;BME280;45426;44.726;10.390;2023-03-21T10:21:25;100762.94;;;19.88;100.00
59608;BME280;45426;44.726;10.390;2023-03-21T10:23:55;100761.53;;;20.45;100.00
59608;BME280;45426;44.726;10.390;2023-03-21T10:26:24;100757.97;;;20.33;100.00
59608;BME280;45426;44.726;10.390;2023-03-21T10:28:53;100751.63;;;20.15;100.00
59608;BME280;45426;44.726;10.390;2023-03-21T10:31:24;100754.81;;;20.42;100.00
59608;BME280;45426;44.726;10.390;2023-03-21T10:33:53;100752.91;;;21.18;100.00
59608;BME280;45426;44.726;10.390;2023-03-21T10:36:24;100746.59;;;21.00;100.00
59608;BME280;45426;44.726;10.390;2023-03-21T10:39:01;100752.88;;;21.40;100.00
59608;BME280;45426;44.726;10.390;2023-03-21T10:41:28;100749.69;;;21.56;100.00
59608;BME280;45426;44.726;10.390;2023-03-21T10:44:13;100749.72;;;20.41;100.00
59608;BME280;45426;44.726;10.390;2023-03-21T10:46:56;100747.28;;;20.25;100.00
59608;BME280;45426;44.726;10.390;2023-03-21T10:49:22;100740.28;;;20.92;100.00
59608;BME280;45426;44.726;10.390;2023-03-21T10:51:56;100744.50;;;21.72;100.00
59608;BME280;45426;44.726;10.390;2023-03-21T10:54:27;100748.16;;;21.26;100.00
59608;BME280;45426;44.726;10.390;2023-03-21T10:57:08;100742.53;;;21.65;100.00
59608;BME280;45426;44.726;10.390;2023-03-21T10:59:42;100734.00;;;20.91;100.00
59608;BME280;45426;44.726;10.390;2023-03-21T11:02:17;100737.09;;;21.22;100.00
59608;BME280;45426;44.726;10.390;2023-03-21T11:04:44;100734.56;;;21.85;100.00
59608;BME280;45426;44.726;10.390;2023-03-21T11:07:13;100747.31;;;20.32;100.00
59608;BME280;45426;44.726;10.390;2023-03-21T11:09:44;100742.22;;;20.45;100.00
59608;BME280;45426;44.726;10.390;2023-03-21T11:12:32;100746.91;;;20.26;100.00
59608;BME280;45426;44.726;10.390;2023-03-21T11:15:23;100740.69;;;21.05;100.00
59608;BME280;45426;44.726;10.390;2023-03-21T11:17:50;100732.19;;;21.84;100.00
59608;BME280;45426;44.726;10.390;2023-03-21T11:20:17;100732.00;;;21.10;100.00
59608;BME280;45426;44.726;10.390;2023-03-21T11:22:43;100721.28;;;21.44;100.00
59608;BME280;45426;44.726;10.390;2023-03-21T11:25:20;100728.47;;;22.16;100.00
59608;BME280;45426;44.726;10.390;2023-03-21T11:27:53;100723.25;;;22.36;100.00
59608;BME280;45426;44.726;10.390;2023-03-21T11:30:24;100724.03;;;21.41;100.00
59608;BME280;45426;44.726;10.390;2023-03-21T11:32:54;100717.00;;;20.61;100.00
59608;BME280;45426;44.726;10.390;2023-03-21T11:35:27;100714.97;;;21.47;100.00
59608;BME280;45426;44.726;10.390;2023-03-21T11:37:56;100713.34;;;21.43;100.00
59608;BME280;45426;44.726;10.390;2023-03-21T11:40:24;100714.22;;;21.25;100.00
59608;BME280;45426;44.726;10.390;2023-03-21T11:42:55;100703.69;;;21.98;100.00
59608;BME280;45426;44.726;10.390;2023-03-21T11:45:22;100697.69;;;22.06;100.00
59608;BME280;45426;44.726;10.390;2023-03-21T11:47:49;100694.41;;;21.56;100.00
59608;BME280;45426;44.726;10.390;2023-03-21T11:50:37;100693.09;;;21.82;100.00
59608;BME280;45426;44.726;10.390;2023-03-21T12:01:53;100666.91;;;20.48;100.00
59608;BME280;45426;44.726;10.390;2023-03-21T12:04:42;100664.53;;;20.25;100.00
59608;BME280;45426;44.726;10.390;2023-03-21T12:12:43;100656.19;;;21.22;100.00
59608;BME280;45426;44.726;10.390;2023-03-21T12:21:19;100642.72;;;21.42;100.00
59608;BME280;45426;44.726;10.390;2023-03-21T12:26:31;100631.81;;;20.59;100.00
59608;BME280;45426;44.726;10.390;2023-03-21T12:32:04;100624.84;;;21.64;100.00
59608;BME280;45426;44.726;10.390;2023-03-21T12:38:21;100616.78;;;21.03;100.00
59608;BME280;45426;44.726;10.390;2023-03-21T12:45:47;100606.44;;;21.29;100.00
59608;BME280;45426;44.726;10.390;2023-03-21T12:50:53;100603.56;;;21.54;100.00
59608;BME280;45426;44.726;10.390;2023-03-21T12:53:29;100605.22;;;21.37;100.00
59608;BME280;45426;44.726;10.390;2023-03-21T12:56:03;100602.44;;;21.41;100.00
59608;BME280;45426;44.726;10.390;2023-03-21T12:58:30;100595.34;;;21.40;100.00
59608;BME280;45426;44.726;10.390;2023-03-21T13:01:01;100589.38;;;21.48;100.00
59608;BME280;45426;44.726;10.390;2023-03-21T13:06:54;100586.81;;;20.98;100.00
59608;BME280;45426;44.726;10.390;2023-03-21T13:09:41;100578.47;;;21.12;100.00
59608;BME280;45426;44.726;10.390;2023-03-21T13:15:33;100562.13;;;21.43;100.00
59608;BME280;45426;44.726;10.390;2023-03-21T13:18:30;100561.53;;;21.07;100.00
59608;BME280;45426;44.726;10.390;2023-03-21T13:21:00;100568.75;;;21.64;100.00
59608;BME280;45426;44.726;10.390;2023-03-21T13:23:36;100565.41;;;21.24;100.00
59608;BME280;45426;44.726;10.390;2023-03-21T13:26:03;100565.94;;;20.90;100.00
59608;BME280;45426;44.726;10.390;2023-03-21T13:28:34;100560.75;;;21.06;100.00
59608;BME280;45426;44.726;10.390;2023-03-21T13:31:24;100563.94;;;20.98;100.00
59608;BME280;45426;44.726;10.390;2023-03-21T13:33:53;100552.66;;;21.55;100.00
59608;BME280;45426;44.726;10.390;2023-03-21T13:36:27;100546.03;;;21.35;100.00
59608;BME280;45426;44.726;10.390;2023-03-21T13:38:58;100539.88;;;20.91;100.00
59608;BME280;45426;44.726;10.390;2023-03-21T13:41:33;100539.56;;;20.74;100.00
59608;BME280;45426;44.726;10.390;2023-03-21T13:49:00;100521.66;;;21.11;100.00
59608;BME280;45426;44.726;10.390;2023-03-21T13:56:28;100504.16;;;21.36;100.00
59608;BME280;45426;44.726;10.390;2023-03-21T13:59:02;100499.84;;;21.28;100.00
59608;BME280;45426;44.726;10.390;2023-03-21T14:01:33;100505.88;;;21.16;100.00
59608;BME280;45426;44.726;10.390;2023-03-21T14:04:09;100494.94;;;20.83;100.00
59608;BME280;45426;44.726;10.390;2023-03-21T14:06:45;100495.41;;;21.48;100.00
59608;BME280;45426;44.726;10.390;2023-03-21T14:11:57;100500.44;;;20.94;100.00
59608;BME280;45426;44.726;10.390;2023-03-21T14:14:27;100494.25;;;20.61;100.00
59608;BME280;45426;44.726;10.390;2023-03-21T14:16:54;100500.16;;;20.56;100.00
59608;BME280;45426;44.726;10.390;2023-03-21T14:19:20;100496.66;;;20.38;100.00
59608;BME280;45426;44.726;10.390;2023-03-21T14:21:52;100500.53;;;20.76;100.00
59608;BME280;45426;44.726;10.390;2023-03-21T14:24:18;100494.25;;;20.54;100.00
59608;BME280;45426;44.726;10.390;2023-03-21T14:26:50;100497.81;;;20.40;100.00
59608;BME280;45426;44.726;10.390;2023-03-21T14:29:24;100489.53;;;20.36;100.00